Terminal Aerodrome Forecast
Issued by NWS

Home | Current Version | Previous Version | Text Only | Print | Product List | Glossary On
Versions: 1 2 3 4 5 6 7 8 9 10 11 12
000
FTUS43 KUNR 281700
TAFGCC
TAF
KGCC 281720Z 2818/2918 32020G30KT P6SM BKN060
     FM290000 32013KT P6SM BKN025
     FM290900 27007KT P6SM SKC=

USA.gov is the U.S. government's official web portal to all federal, state and local government web resources and services.